createdAt,value
2022-10-13T00:00:50.417Z,13.63
2022-10-13T00:02:55.299Z,13.60
2022-10-13T00:04:59.910Z,13.59
2022-10-13T00:07:05.226Z,13.55
2022-10-13T00:09:09.883Z,13.51
2022-10-13T00:11:17.959Z,13.50
2022-10-13T00:13:22.651Z,13.47
2022-10-13T00:15:27.265Z,13.46
2022-10-13T00:17:31.908Z,13.45
2022-10-13T00:19:36.608Z,13.45
2022-10-13T00:21:41.839Z,13.44
2022-10-13T00:23:46.892Z,13.43
2022-10-13T00:25:54.350Z,13.43
2022-10-13T00:28:00.247Z,13.44
2022-10-13T00:30:11.157Z,13.46
2022-10-13T00:32:17.349Z,13.47
2022-10-13T00:34:22.297Z,13.46
2022-10-13T00:36:27.298Z,13.46
2022-10-13T00:38:31.999Z,13.47
2022-10-13T00:40:44.740Z,13.46
2022-10-13T00:42:49.443Z,13.44
2022-10-13T00:45:19.871Z,13.41
2022-10-13T00:47:25.795Z,13.39
2022-10-13T00:49:30.901Z,13.38
2022-10-13T00:51:39.454Z,13.38
2022-10-13T00:53:46.874Z,13.37
2022-10-13T00:55:53.325Z,13.35
2022-10-13T00:58:05.413Z,13.35
2022-10-13T01:00:12.580Z,13.35
2022-10-13T01:02:17.735Z,13.35
2022-10-13T01:04:26.258Z,13.34
2022-10-13T01:06:31.814Z,13.31
2022-10-13T01:08:36.539Z,13.29
2022-10-13T01:10:52.442Z,13.27
2022-10-13T01:13:05.470Z,13.25
2022-10-13T01:15:17.346Z,13.22
2022-10-13T01:17:28.725Z,13.20
2022-10-13T01:19:55.104Z,13.19
2022-10-13T01:22:08.591Z,13.18
2022-10-13T01:24:46.744Z,13.19
2022-10-13T01:27:12.816Z,13.17
2022-10-13T01:29:38.819Z,13.16
2022-10-13T01:31:50.533Z,13.15
2022-10-13T01:34:03.994Z,13.10
2022-10-13T01:36:21.079Z,13.09
2022-10-13T01:38:33.762Z,13.06
2022-10-13T01:40:44.282Z,13.06
2022-10-13T01:42:58.767Z,13.07
2022-10-13T01:45:04.466Z,13.08
2022-10-13T01:47:11.584Z,13.06
2022-10-13T01:49:19.291Z,13.05
2022-10-13T01:51:26.564Z,13.06
2022-10-13T01:53:31.808Z,13.08
2022-10-13T01:55:36.499Z,13.09
2022-10-13T01:57:43.093Z,13.11
2022-10-13T01:59:48.168Z,13.09
2022-10-13T02:02:03.345Z,13.09
2022-10-13T02:04:20.923Z,13.09
2022-10-13T02:06:31.205Z,13.08
2022-10-13T02:08:45.198Z,13.07
2022-10-13T02:10:57.425Z,13.07
2022-10-13T02:13:04.588Z,13.08
2022-10-13T02:15:13.977Z,13.07
2022-10-13T02:17:19.488Z,13.06
2022-10-13T02:19:24.763Z,13.09
2022-10-13T02:21:30.630Z,13.12
2022-10-13T02:23:38.102Z,13.14
2022-10-13T02:25:43.549Z,13.14
2022-10-13T02:27:48.325Z,13.16
2022-10-13T02:29:56.841Z,13.18
2022-10-13T02:32:05.313Z,13.23
2022-10-13T02:34:10.365Z,13.26
2022-10-13T02:36:14.994Z,13.27
2022-10-13T02:38:19.688Z,13.28
2022-10-13T02:40:27.312Z,13.29
2022-10-13T02:42:31.962Z,13.30
2022-10-13T02:44:37.019Z,13.31
2022-10-13T02:46:41.743Z,13.32
2022-10-13T02:48:46.376Z,13.32
2022-10-13T02:50:51.086Z,13.36
2022-10-13T02:52:55.788Z,13.41
2022-10-13T02:55:00.649Z,13.45
2022-10-13T02:57:05.441Z,13.51
2022-10-13T02:59:10.105Z,13.56
2022-10-13T03:01:15.630Z,13.55
2022-10-13T03:03:20.421Z,13.55
2022-10-13T03:05:26.908Z,13.58
2022-10-13T03:07:31.594Z,13.63
2022-10-13T03:09:36.333Z,13.69
2022-10-13T03:11:41.043Z,13.75
2022-10-13T03:13:45.772Z,13.82
2022-10-13T03:15:50.709Z,13.85
2022-10-13T03:17:56.852Z,13.90
2022-10-13T03:20:01.497Z,13.95
2022-10-13T03:22:06.201Z,14.01
2022-10-13T03:24:10.943Z,14.06
2022-10-13T03:26:15.656Z,14.09
2022-10-13T03:28:20.663Z,14.13
2022-10-13T03:30:29.140Z,14.15
2022-10-13T03:32:33.765Z,14.14
2022-10-13T03:34:38.511Z,14.16
2022-10-13T03:36:43.192Z,14.16
2022-10-13T03:38:47.886Z,14.17
2022-10-13T03:40:52.716Z,14.21
2022-10-13T03:42:57.356Z,14.20
2022-10-13T03:45:02.089Z,14.16
2022-10-13T03:47:06.931Z,14.10
2022-10-13T03:49:12.772Z,14.08
2022-10-13T03:51:19.569Z,14.03
2022-10-13T03:53:24.572Z,13.99
2022-10-13T03:55:29.232Z,13.96
2022-10-13T03:57:33.935Z,13.94
2022-10-13T03:59:39.042Z,13.90
2022-10-13T04:01:45.452Z,13.85
2022-10-13T04:03:50.797Z,13.81
2022-10-13T04:05:55.460Z,13.85
2022-10-13T04:08:00.112Z,13.89
2022-10-13T04:10:10.198Z,13.90
2022-10-13T04:12:20.669Z,13.88
2022-10-13T04:14:25.905Z,13.85
2022-10-13T04:16:35.760Z,13.82
2022-10-13T04:18:44.849Z,13.79
2022-10-13T04:20:49.851Z,13.82
2022-10-13T04:22:54.512Z,13.79
2022-10-13T04:24:59.156Z,13.77
2022-10-13T04:27:04.768Z,13.71
2022-10-13T04:29:11.127Z,13.65
2022-10-13T04:31:16.592Z,13.61
2022-10-13T04:33:21.458Z,13.56
2022-10-13T04:35:26.271Z,13.49
2022-10-13T04:37:30.901Z,13.42
2022-10-13T04:39:35.667Z,13.39
2022-10-13T04:41:40.354Z,13.35
2022-10-13T04:43:47.181Z,13.36
2022-10-13T04:45:52.031Z,13.39
2022-10-13T04:47:56.722Z,13.44
2022-10-13T04:50:01.422Z,13.47
2022-10-13T04:52:06.214Z,13.49
2022-10-13T04:54:10.968Z,13.47
2022-10-13T04:56:17.379Z,13.46
2022-10-13T04:58:22.456Z,13.47
2022-10-13T05:00:27.175Z,13.48
2022-10-13T05:02:31.933Z,13.49
2022-10-13T05:04:36.678Z,13.51
2022-10-13T05:07:05.212Z,13.57
2022-10-13T05:09:14.389Z,13.63
2022-10-13T05:11:19.585Z,13.68
2022-10-13T05:13:24.759Z,13.72
2022-10-13T05:15:29.520Z,13.77
2022-10-13T05:17:35.548Z,13.73
2022-10-13T05:19:43.703Z,13.69
2022-10-13T05:21:48.337Z,13.63
2022-10-13T05:23:53.775Z,13.58
2022-10-13T05:26:00.656Z,13.55
2022-10-13T05:28:06.816Z,13.50
2022-10-13T05:30:13.411Z,13.50
2022-10-13T05:32:18.414Z,13.50
2022-10-13T05:34:23.312Z,13.49
2022-10-13T05:36:29.646Z,13.48
2022-10-13T05:38:34.514Z,13.46
2022-10-13T05:40:39.264Z,13.49
2022-10-13T05:42:43.897Z,13.51
2022-10-13T05:44:48.886Z,13.52
2022-10-13T05:46:53.781Z,13.52
2022-10-13T05:48:58.685Z,13.49
2022-10-13T05:51:09.633Z,13.42
2022-10-13T05:53:14.393Z,13.37
2022-10-13T05:55:20.025Z,13.33
2022-10-13T05:57:27.980Z,13.32
2022-10-13T05:59:36.988Z,13.31
2022-10-13T06:01:42.327Z,13.34
2022-10-13T06:03:49.814Z,13.38
2022-10-13T06:05:54.587Z,13.41
2022-10-13T06:07:59.299Z,13.46
2022-10-13T06:10:04.385Z,13.49
2022-10-13T06:12:10.076Z,13.48
2022-10-13T06:14:14.865Z,13.43
2022-10-13T06:16:19.675Z,13.39
2022-10-13T06:18:24.355Z,13.37
2022-10-13T06:20:29.391Z,13.32
2022-10-13T06:22:34.644Z,13.27
2022-10-13T06:24:39.345Z,13.27
2022-10-13T06:26:46.513Z,13.25
2022-10-13T06:28:54.441Z,13.26
2022-10-13T06:31:03.627Z,13.21
2022-10-13T06:33:08.222Z,13.22
2022-10-13T06:35:13.662Z,13.22
2022-10-13T06:37:19.639Z,13.22
2022-10-13T06:39:26.826Z,13.23
2022-10-13T06:41:31.453Z,13.21
2022-10-13T06:43:40.319Z,13.16
2022-10-13T06:45:47.704Z,13.12
2022-10-13T06:47:54.592Z,13.10
2022-10-13T06:49:59.363Z,13.10
2022-10-13T06:52:05.306Z,13.14
2022-10-13T06:54:09.955Z,13.15
2022-10-13T06:56:14.931Z,13.15
2022-10-13T06:58:19.710Z,13.18
2022-10-13T07:00:24.445Z,13.21
2022-10-13T07:02:29.251Z,13.27
2022-10-13T07:04:33.858Z,13.31
2022-10-13T07:06:38.490Z,13.33
2022-10-13T07:08:43.282Z,13.35
2022-10-13T07:10:47.900Z,13.32
2022-10-13T07:12:52.563Z,13.27
2022-10-13T07:14:57.194Z,13.26
2022-10-13T07:17:01.828Z,13.25
2022-10-13T07:19:06.485Z,13.27
2022-10-13T07:21:11.185Z,13.28
2022-10-13T07:23:16.274Z,13.32
2022-10-13T07:25:21.037Z,13.40
2022-10-13T07:27:25.878Z,13.47
2022-10-13T07:29:30.678Z,13.55
2022-10-13T07:31:35.394Z,13.60
2022-10-13T07:33:40.672Z,13.64
2022-10-13T07:35:45.487Z,13.66
2022-10-13T07:37:52.013Z,13.70
2022-10-13T07:39:56.711Z,13.75
2022-10-13T07:42:03.059Z,13.78
2022-10-13T07:44:08.161Z,13.77
2022-10-13T07:46:13.706Z,13.78
2022-10-13T07:48:18.444Z,13.86
2022-10-13T07:50:23.537Z,13.96
2022-10-13T07:52:28.262Z,14.08
2022-10-13T07:54:32.966Z,14.16
2022-10-13T07:56:37.684Z,14.26
2022-10-13T07:58:44.198Z,14.36
2022-10-13T08:00:57.262Z,14.42
2022-10-13T08:03:03.462Z,14.46
2022-10-13T08:05:09.026Z,14.51
2022-10-13T08:07:13.716Z,14.57
2022-10-13T08:09:18.386Z,14.62
2022-10-13T08:11:23.037Z,14.68
2022-10-13T08:13:27.830Z,14.66
2022-10-13T08:15:32.456Z,14.60
2022-10-13T08:17:37.097Z,14.53
2022-10-13T08:19:41.747Z,14.48
2022-10-13T08:22:01.860Z,14.49
2022-10-13T08:24:10.213Z,14.53
2022-10-13T08:26:21.112Z,14.59
2022-10-13T08:28:27.766Z,14.63
2022-10-13T08:30:32.665Z,14.68
2022-10-13T08:32:40.219Z,14.74
2022-10-13T08:34:44.876Z,14.82
2022-10-13T08:36:49.622Z,14.87
2022-10-13T08:38:54.236Z,14.85
2022-10-13T08:40:58.962Z,14.88
2022-10-13T08:43:07.217Z,14.91
2022-10-13T08:45:40.313Z,14.94
2022-10-13T08:47:46.654Z,14.95
2022-10-13T08:49:54.350Z,15.02
2022-10-13T08:52:05.459Z,15.08
2022-10-13T08:54:11.949Z,15.15
2022-10-13T08:56:21.728Z,15.20
2022-10-13T08:58:29.094Z,15.23
2022-10-13T09:00:33.843Z,15.24
2022-10-13T09:02:40.055Z,15.28
2022-10-13T09:04:49.776Z,15.29
2022-10-13T09:06:58.732Z,15.28
2022-10-13T09:09:05.526Z,15.28
2022-10-13T09:11:12.995Z,15.26
2022-10-13T09:13:18.622Z,15.28
2022-10-13T09:15:23.357Z,15.33
2022-10-13T09:17:29.338Z,15.38
2022-10-13T09:19:35.325Z,15.40
2022-10-13T09:21:40.546Z,15.42
2022-10-13T09:23:45.308Z,15.46
2022-10-13T09:25:51.787Z,15.52
2022-10-13T09:27:58.752Z,15.58
2022-10-13T09:30:26.870Z,15.60
2022-10-13T09:32:36.902Z,15.57
2022-10-13T09:34:41.661Z,15.56
2022-10-13T09:37:00.787Z,15.50
2022-10-13T09:39:12.807Z,15.38
2022-10-13T09:41:21.691Z,15.30
2022-10-13T09:43:31.888Z,15.28
2022-10-13T09:45:36.703Z,15.29
2022-10-13T09:47:41.734Z,15.32
2022-10-13T09:49:57.871Z,15.35
2022-10-13T09:52:04.526Z,15.35
2022-10-13T09:54:27.830Z,15.35
2022-10-13T09:56:40.748Z,15.32
2022-10-13T09:58:51.631Z,15.38
2022-10-13T10:00:57.711Z,15.47
2022-10-13T10:03:06.304Z,15.53
2022-10-13T10:05:22.199Z,15.57
2022-10-13T10:07:32.679Z,15.51
2022-10-13T10:09:41.380Z,15.45
2022-10-13T10:11:50.202Z,15.41
2022-10-13T10:13:55.487Z,15.36
2022-10-13T10:16:07.437Z,15.30
2022-10-13T10:18:17.726Z,15.30
2022-10-13T10:20:43.505Z,15.40
2022-10-13T10:22:56.901Z,15.52
2022-10-13T10:25:10.669Z,15.60
2022-10-13T10:27:21.728Z,15.61
2022-10-13T10:29:45.789Z,15.60
2022-10-13T10:32:11.835Z,15.54
2022-10-13T10:34:36.383Z,15.52
2022-10-13T10:36:49.830Z,15.56
2022-10-13T10:38:58.599Z,15.55
2022-10-13T10:41:12.566Z,15.50
2022-10-13T10:43:41.305Z,15.42
2022-10-13T10:45:49.085Z,15.40
2022-10-13T10:47:57.828Z,15.36
2022-10-13T10:50:08.401Z,15.35
2022-10-13T10:52:32.924Z,15.34
2022-10-13T10:54:51.770Z,15.33
2022-10-13T10:57:00.676Z,15.32
2022-10-13T10:59:16.841Z,15.30
2022-10-13T11:01:36.346Z,15.26
2022-10-13T11:03:50.813Z,15.28
2022-10-13T11:06:20.876Z,15.32
2022-10-13T11:08:30.976Z,15.39
2022-10-13T11:10:35.702Z,15.46
2022-10-13T11:13:20.311Z,15.52
2022-10-13T11:15:31.544Z,15.58
2022-10-13T11:17:38.041Z,15.63
2022-10-13T11:19:42.934Z,15.71
2022-10-13T11:22:15.109Z,15.78
2022-10-13T11:24:46.819Z,15.87
2022-10-13T11:26:52.849Z,15.98
2022-10-13T11:28:57.892Z,16.10
2022-10-13T11:31:25.968Z,16.22
2022-10-13T11:33:53.962Z,16.32
2022-10-13T11:35:58.642Z,16.40
2022-10-13T11:38:44.127Z,16.47
2022-10-13T11:41:09.424Z,16.50
2022-10-13T11:43:34.719Z,16.49
2022-10-13T11:46:05.329Z,16.46
2022-10-13T11:48:32.360Z,16.44
2022-10-13T11:50:42.559Z,16.44
2022-10-13T11:53:02.166Z,16.48
2022-10-13T11:55:13.744Z,16.56
2022-10-13T11:57:22.799Z,16.62
2022-10-13T11:59:29.126Z,16.66
2022-10-13T12:01:33.823Z,16.69
2022-10-13T12:03:41.019Z,16.71
2022-10-13T12:05:50.381Z,16.69
2022-10-13T12:07:58.701Z,16.73
2022-10-13T12:10:06.032Z,16.73
2022-10-13T12:12:16.244Z,16.70
2022-10-13T12:14:26.259Z,16.72
2022-10-13T12:16:30.894Z,16.75
2022-10-13T12:18:37.257Z,16.77
2022-10-13T12:20:41.875Z,16.86
2022-10-13T12:22:50.622Z,16.95
2022-10-13T12:25:04.064Z,16.98
2022-10-13T12:27:20.395Z,16.98
2022-10-13T12:29:27.050Z,16.98
2022-10-13T12:31:40.867Z,17.00
2022-10-13T12:33:51.584Z,17.00
2022-10-13T12:35:56.574Z,17.01
2022-10-13T12:38:06.099Z,17.04
2022-10-13T12:40:19.056Z,17.00
2022-10-13T12:42:28.634Z,16.94
2022-10-13T12:44:34.271Z,16.93
2022-10-13T12:46:41.262Z,16.88
2022-10-13T12:48:45.998Z,16.78
2022-10-13T12:50:50.724Z,16.66
2022-10-13T12:53:03.205Z,16.61
2022-10-13T12:55:19.472Z,16.58
2022-10-13T12:57:31.501Z,16.53
2022-10-13T12:59:42.631Z,16.55
2022-10-13T13:01:52.411Z,16.65
2022-10-13T13:03:59.879Z,16.71
2022-10-13T13:06:21.654Z,16.69
2022-10-13T13:08:28.138Z,16.68
2022-10-13T13:10:32.896Z,16.69
2022-10-13T13:12:37.970Z,16.75
2022-10-13T13:14:48.925Z,16.82
2022-10-13T13:17:17.362Z,16.88
2022-10-13T13:19:24.871Z,16.91
2022-10-13T13:21:29.482Z,16.90
2022-10-13T13:23:34.360Z,16.95
2022-10-13T13:25:41.121Z,17.00
2022-10-13T13:27:45.797Z,16.99
2022-10-13T13:29:54.983Z,16.89
2022-10-13T13:31:59.588Z,16.83
2022-10-13T13:34:04.227Z,16.82
2022-10-13T13:36:16.121Z,16.80
2022-10-13T13:38:21.550Z,16.81
2022-10-13T13:40:28.679Z,16.82
2022-10-13T13:42:33.412Z,16.82
2022-10-13T13:44:38.112Z,16.81
2022-10-13T13:46:42.762Z,16.80
2022-10-13T13:48:47.544Z,16.76
2022-10-13T13:50:52.255Z,16.75
2022-10-13T13:52:57.041Z,16.75
2022-10-13T13:55:01.704Z,16.78
2022-10-13T13:57:06.500Z,16.78
2022-10-13T13:59:11.689Z,16.79
2022-10-13T14:01:16.478Z,16.81
2022-10-13T14:03:21.264Z,16.85
2022-10-13T14:05:26.195Z,16.85
2022-10-13T14:07:30.840Z,16.86
2022-10-13T14:09:35.767Z,16.83
2022-10-13T14:11:40.316Z,16.82
2022-10-13T14:13:47.887Z,16.82
2022-10-13T14:16:03.481Z,16.85
2022-10-13T14:18:08.367Z,16.87
2022-10-13T14:20:13.530Z,16.89
2022-10-13T14:22:19.628Z,16.92
2022-10-13T14:24:24.324Z,16.91
2022-10-13T14:26:29.000Z,16.88
2022-10-13T14:28:33.664Z,16.83
2022-10-13T14:30:40.810Z,16.80
2022-10-13T14:32:45.468Z,16.77
2022-10-13T14:34:50.115Z,16.76
2022-10-13T14:36:54.872Z,16.76
2022-10-13T14:38:59.731Z,16.80
2022-10-13T14:41:05.925Z,16.81
2022-10-13T14:43:10.522Z,16.82
2022-10-13T14:45:15.230Z,16.83
2022-10-13T14:47:20.047Z,16.83
2022-10-13T14:49:24.807Z,16.82
2022-10-13T14:51:29.460Z,16.82
2022-10-13T14:53:36.331Z,16.81
2022-10-13T14:55:40.964Z,16.82
2022-10-13T14:57:45.579Z,16.81
2022-10-13T14:59:50.899Z,16.79
2022-10-13T15:01:55.479Z,16.77
2022-10-13T15:04:00.275Z,16.70
2022-10-13T15:06:05.558Z,16.67
2022-10-13T15:08:10.242Z,16.61
2022-10-13T15:10:14.964Z,16.55
2022-10-13T15:12:19.930Z,16.47
2022-10-13T15:14:25.084Z,16.40
2022-10-13T15:16:33.515Z,16.35
2022-10-13T15:18:38.169Z,16.33
2022-10-13T15:20:46.847Z,16.32
2022-10-13T15:22:51.563Z,16.28
2022-10-13T15:24:56.404Z,16.23
2022-10-13T15:27:01.092Z,16.18
2022-10-13T15:29:07.590Z,16.11
2022-10-13T15:31:12.878Z,16.01
2022-10-13T15:33:20.581Z,15.93
2022-10-13T15:35:28.966Z,15.87
2022-10-13T15:37:33.675Z,15.82
2022-10-13T15:39:38.831Z,15.76
2022-10-13T15:41:43.494Z,15.76
2022-10-13T15:43:48.285Z,15.73
2022-10-13T15:45:59.387Z,15.65
2022-10-13T15:48:04.955Z,15.57
2022-10-13T15:50:10.671Z,15.49
2022-10-13T15:52:15.453Z,15.45
2022-10-13T15:54:21.900Z,15.42
2022-10-13T15:56:26.567Z,15.37
2022-10-13T15:58:31.257Z,15.34
2022-10-13T16:00:35.967Z,15.32
2022-10-13T16:02:41.193Z,15.30
2022-10-13T16:04:45.856Z,15.27
2022-10-13T16:06:50.534Z,15.24
2022-10-13T16:08:55.269Z,15.20
2022-10-13T16:11:00.057Z,15.16
2022-10-13T16:13:04.697Z,15.09
2022-10-13T16:15:10.800Z,15.03
2022-10-13T16:17:15.516Z,14.96
2022-10-13T16:19:20.297Z,14.91
2022-10-13T16:21:25.935Z,14.88
2022-10-13T16:23:30.677Z,14.86
2022-10-13T16:25:38.404Z,14.82
2022-10-13T16:27:44.613Z,14.79
2022-10-13T16:29:49.565Z,14.76
2022-10-13T16:31:54.272Z,14.72
2022-10-13T16:33:59.006Z,14.68
2022-10-13T16:36:08.856Z,14.67
2022-10-13T16:38:14.691Z,14.64
2022-10-13T16:40:19.394Z,14.62
2022-10-13T16:42:24.089Z,14.60
2022-10-13T16:44:28.771Z,14.58
2022-10-13T16:46:33.395Z,14.56
2022-10-13T16:48:38.064Z,14.54
2022-10-13T16:50:42.974Z,14.50
2022-10-13T16:52:47.947Z,14.47
2022-10-13T16:54:52.619Z,14.44
2022-10-13T16:56:57.310Z,14.42
2022-10-13T16:59:04.163Z,14.42
2022-10-13T17:01:13.759Z,14.41
2022-10-13T17:03:18.656Z,14.40
2022-10-13T17:05:25.630Z,14.38
2022-10-13T17:07:32.124Z,14.35
2022-10-13T17:09:37.228Z,14.35
2022-10-13T17:11:41.891Z,14.36
2022-10-13T17:13:46.893Z,14.37
2022-10-13T17:15:53.169Z,14.36
2022-10-13T17:18:00.386Z,14.35
2022-10-13T17:20:06.060Z,14.34
2022-10-13T17:22:11.739Z,14.35
2022-10-13T17:24:18.727Z,14.31
2022-10-13T17:26:29.304Z,14.27
2022-10-13T17:28:36.479Z,14.25
2022-10-13T17:30:42.932Z,14.22
2022-10-13T17:32:48.181Z,14.22
2022-10-13T17:34:54.563Z,14.21
2022-10-13T17:37:00.512Z,14.20
2022-10-13T17:39:08.707Z,14.18
2022-10-13T17:41:19.248Z,14.16
2022-10-13T17:43:28.551Z,14.14
2022-10-13T17:45:35.605Z,14.13
2022-10-13T17:47:47.809Z,14.11
2022-10-13T17:49:53.620Z,14.10
2022-10-13T17:52:01.892Z,14.09
2022-10-13T17:54:11.627Z,14.07
2022-10-13T17:56:23.640Z,14.05
2022-10-13T17:58:38.203Z,14.03
2022-10-13T18:01:11.422Z,14.01
2022-10-13T18:03:09.339Z,14.01
2022-10-13T18:05:14.895Z,14.01
2022-10-13T18:07:19.945Z,14.02
2022-10-13T18:09:29.959Z,14.02
2022-10-13T18:11:35.643Z,14.02
2022-10-13T18:13:41.532Z,14.01
2022-10-13T18:15:46.991Z,14.00
2022-10-13T18:17:54.603Z,14.01
2022-10-13T18:20:02.652Z,14.03
2022-10-13T18:22:09.399Z,14.03
2022-10-13T18:24:18.207Z,14.03
2022-10-13T18:26:25.587Z,14.06
2022-10-13T18:28:34.494Z,14.08
2022-10-13T18:30:40.861Z,14.10
2022-10-13T18:32:48.665Z,14.10
2022-10-13T18:34:58.447Z,14.11
2022-10-13T18:37:04.520Z,14.11
2022-10-13T18:39:14.619Z,14.11
2022-10-13T18:41:25.910Z,14.14
2022-10-13T18:43:32.968Z,14.15
2022-10-13T18:45:39.116Z,14.20
2022-10-13T18:47:45.491Z,14.26
2022-10-13T18:49:51.966Z,14.30
2022-10-13T18:51:58.303Z,14.33
2022-10-13T18:54:06.789Z,14.34
2022-10-13T18:56:16.516Z,14.34
2022-10-13T18:58:23.851Z,14.33
2022-10-13T19:00:31.918Z,14.35
2022-10-13T19:02:37.321Z,14.38
2022-10-13T19:04:45.127Z,14.43
2022-10-13T19:06:53.633Z,14.49
2022-10-13T19:09:02.614Z,14.52
2022-10-13T19:11:21.141Z,14.57
2022-10-13T19:13:26.993Z,14.53
2022-10-13T19:15:33.699Z,14.49
2022-10-13T19:17:39.926Z,14.45
2022-10-13T19:19:46.484Z,14.43
2022-10-13T19:21:52.418Z,14.37
2022-10-13T19:24:01.066Z,14.30
2022-10-13T19:26:14.845Z,14.27
2022-10-13T19:28:22.658Z,14.27
2022-10-13T19:30:34.383Z,14.27
2022-10-13T19:32:42.123Z,14.22
2022-10-13T19:34:49.982Z,14.14
2022-10-13T19:37:00.590Z,14.12
2022-10-13T19:39:13.382Z,14.13
2022-10-13T19:41:20.369Z,14.12
2022-10-13T19:43:28.875Z,14.12
2022-10-13T19:45:46.185Z,14.14
2022-10-13T19:47:54.681Z,14.16
2022-10-13T19:50:01.594Z,14.16
2022-10-13T19:52:07.889Z,14.18
2022-10-13T19:54:19.375Z,14.19
2022-10-13T19:56:37.326Z,14.16
2022-10-13T19:58:46.138Z,14.15
2022-10-13T20:00:52.247Z,14.16
2022-10-13T20:03:00.235Z,14.16
2022-10-13T20:05:08.935Z,14.16
2022-10-13T20:07:16.059Z,14.15
2022-10-13T20:09:21.422Z,14.17
2022-10-13T20:11:26.179Z,14.21
2022-10-13T20:13:31.656Z,14.22
2022-10-13T20:15:43.123Z,14.21
2022-10-13T20:17:48.460Z,14.22
2022-10-13T20:19:53.527Z,14.25
2022-10-13T20:21:58.235Z,14.30
2022-10-13T20:24:07.694Z,14.32
2022-10-13T20:26:13.894Z,14.28
2022-10-13T20:28:19.120Z,14.22
2022-10-13T20:30:24.066Z,14.16
2022-10-13T20:32:28.846Z,14.11
2022-10-13T20:34:33.555Z,14.02
2022-10-13T20:36:39.181Z,13.95
2022-10-13T20:38:44.193Z,13.84
2022-10-13T20:40:48.854Z,13.72
2022-10-13T20:42:53.900Z,13.61
2022-10-13T20:44:58.578Z,13.52
2022-10-13T20:47:03.205Z,13.45
2022-10-13T20:49:11.562Z,13.38
2022-10-13T20:51:19.454Z,13.34
2022-10-13T20:53:24.145Z,13.31
2022-10-13T20:55:30.097Z,13.27
2022-10-13T20:57:34.683Z,13.25
2022-10-13T20:59:39.672Z,13.23
2022-10-13T21:01:44.886Z,13.20
2022-10-13T21:03:52.736Z,13.16
2022-10-13T21:05:58.078Z,13.13
2022-10-13T21:08:02.823Z,13.15
2022-10-13T21:10:09.104Z,13.19
2022-10-13T21:12:14.107Z,13.23
2022-10-13T21:14:18.770Z,13.28
2022-10-13T21:16:25.179Z,13.31
2022-10-13T21:18:29.956Z,13.34
2022-10-13T21:20:35.981Z,13.36
2022-10-13T21:22:40.683Z,13.39
2022-10-13T21:24:47.643Z,13.42
2022-10-13T21:26:52.256Z,13.44
2022-10-13T21:29:00.676Z,13.47
2022-10-13T21:31:07.041Z,13.50
2022-10-13T21:33:12.059Z,13.51
2022-10-13T21:35:17.477Z,13.53
2022-10-13T21:37:22.845Z,13.54
2022-10-13T21:39:27.863Z,13.58
2022-10-13T21:41:32.612Z,13.59
2022-10-13T21:43:37.455Z,13.60
2022-10-13T21:45:42.178Z,13.63
2022-10-13T21:47:46.822Z,13.66
2022-10-13T21:49:52.914Z,13.68
2022-10-13T21:51:57.625Z,13.70
2022-10-13T21:54:04.463Z,13.70
2022-10-13T21:56:11.025Z,13.70
2022-10-13T21:58:15.635Z,13.72
2022-10-13T22:00:20.688Z,13.72
2022-10-13T22:02:25.363Z,13.68
2022-10-13T22:04:30.027Z,13.66
2022-10-13T22:06:34.858Z,13.62
2022-10-13T22:08:40.933Z,13.59
2022-10-13T22:11:00.464Z,13.49
2022-10-13T22:13:05.162Z,13.40
2022-10-13T22:15:13.237Z,13.36
2022-10-13T22:17:18.085Z,13.36
2022-10-13T22:19:22.912Z,13.36
2022-10-13T22:21:29.568Z,13.39
2022-10-13T22:23:34.395Z,13.40
2022-10-13T22:25:44.727Z,13.43
2022-10-13T22:27:49.361Z,13.44
2022-10-13T22:29:54.095Z,13.44
2022-10-13T22:31:59.212Z,13.46
2022-10-13T22:34:04.388Z,13.44
2022-10-13T22:36:11.951Z,13.46
2022-10-13T22:38:16.812Z,13.50
2022-10-13T22:40:21.434Z,13.52
2022-10-13T22:42:26.361Z,13.54
2022-10-13T22:44:31.462Z,13.56
2022-10-13T22:46:39.529Z,13.58
2022-10-13T22:48:48.457Z,13.62
2022-10-13T22:50:53.150Z,13.64
2022-10-13T22:52:57.790Z,13.67
2022-10-13T22:55:02.444Z,13.67
2022-10-13T22:57:09.300Z,13.66
2022-10-13T22:59:14.134Z,13.67
2022-10-13T23:01:19.464Z,13.65
2022-10-13T23:03:24.248Z,13.65
2022-10-13T23:05:30.267Z,13.66
2022-10-13T23:07:34.943Z,13.67
2022-10-13T23:09:39.760Z,13.70
2022-10-13T23:11:44.515Z,13.70
2022-10-13T23:13:56.120Z,13.71
2022-10-13T23:16:05.641Z,13.71
2022-10-13T23:18:11.939Z,13.73
2022-10-13T23:20:16.757Z,13.76
2022-10-13T23:22:21.498Z,13.78
2022-10-13T23:24:27.410Z,13.78
2022-10-13T23:26:32.570Z,13.80
2022-10-13T23:28:37.538Z,13.79
2022-10-13T23:30:42.315Z,13.78
2022-10-13T23:32:47.118Z,13.79
2022-10-13T23:34:51.908Z,13.80
2022-10-13T23:36:57.340Z,13.79
2022-10-13T23:39:04.045Z,13.78
2022-10-13T23:41:11.282Z,13.77
2022-10-13T23:43:16.251Z,13.76
2022-10-13T23:45:21.275Z,13.72
2022-10-13T23:47:26.171Z,13.74
2022-10-13T23:49:30.980Z,13.74
2022-10-13T23:51:35.824Z,13.74
2022-10-13T23:53:41.741Z,13.72
2022-10-13T23:55:46.716Z,13.68
2022-10-13T23:57:51.461Z,13.64
2022-10-13T23:59:56.307Z,13.61
